sensor_id;sensor_type;location;lat;lon;timestamp;P1;durP1;ratioP1;P2;durP2;ratioP2
18812;SDS011;9534;51.140;6.296;2022-09-04T00:02:36;7.97;;;3.08;;
18812;SDS011;9534;51.140;6.296;2022-09-04T00:07:01;5.70;;;3.10;;
18812;SDS011;9534;51.140;6.296;2022-09-04T00:11:15;7.53;;;3.25;;
18812;SDS011;9534;51.140;6.296;2022-09-04T00:15:31;6.78;;;3.13;;
18812;SDS011;9534;51.140;6.296;2022-09-04T00:19:39;6.40;;;3.15;;
18812;SDS011;9534;51.140;6.296;2022-09-04T00:23:47;6.65;;;3.72;;
18812;SDS011;9534;51.140;6.296;2022-09-04T00:27:59;7.85;;;3.08;;
18812;SDS011;9534;51.140;6.296;2022-09-04T00:32:08;6.55;;;3.03;;
18812;SDS011;9534;51.140;6.296;2022-09-04T00:36:20;6.32;;;3.35;;
18812;SDS011;9534;51.140;6.296;2022-09-04T00:40:29;7.13;;;3.60;;
18812;SDS011;9534;51.140;6.296;2022-09-04T00:44:39;6.93;;;3.13;;
18812;SDS011;9534;51.140;6.296;2022-09-04T00:49:02;6.72;;;3.53;;
18812;SDS011;9534;51.140;6.296;2022-09-04T00:53:29;7.13;;;3.38;;
18812;SDS011;9534;51.140;6.296;2022-09-04T00:57:50;7.88;;;3.85;;
18812;SDS011;9534;51.140;6.296;2022-09-04T01:02:07;8.13;;;4.03;;
18812;SDS011;9534;51.140;6.296;2022-09-04T01:06:26;7.43;;;4.18;;
18812;SDS011;9534;51.140;6.296;2022-09-04T01:10:41;7.65;;;4.07;;
18812;SDS011;9534;51.140;6.296;2022-09-04T01:14:53;7.55;;;4.15;;
18812;SDS011;9534;51.140;6.296;2022-09-04T01:19:34;10.63;;;4.60;;
18812;SDS011;9534;51.140;6.296;2022-09-04T01:23:55;9.48;;;4.88;;
18812;SDS011;9534;51.140;6.296;2022-09-04T01:28:31;12.18;;;4.55;;
18812;SDS011;9534;51.140;6.296;2022-09-04T01:32:43;11.43;;;4.93;;
18812;SDS011;9534;51.140;6.296;2022-09-04T01:36:55;10.15;;;4.60;;
18812;SDS011;9534;51.140;6.296;2022-09-04T01:41:06;11.27;;;5.15;;
18812;SDS011;9534;51.140;6.296;2022-09-04T01:45:23;13.45;;;4.85;;
18812;SDS011;9534;51.140;6.296;2022-09-04T01:49:35;11.48;;;4.95;;
18812;SDS011;9534;51.140;6.296;2022-09-04T01:53:41;11.13;;;4.95;;
18812;SDS011;9534;51.140;6.296;2022-09-04T01:57:53;8.55;;;4.50;;
18812;SDS011;9534;51.140;6.296;2022-09-04T02:02:06;12.10;;;4.82;;
18812;SDS011;9534;51.140;6.296;2022-09-04T02:06:19;11.68;;;4.80;;
18812;SDS011;9534;51.140;6.296;2022-09-04T02:10:31;12.35;;;5.35;;
18812;SDS011;9534;51.140;6.296;2022-09-04T02:14:41;11.45;;;5.07;;
18812;SDS011;9534;51.140;6.296;2022-09-04T02:19:02;9.05;;;4.13;;
18812;SDS011;9534;51.140;6.296;2022-09-04T02:23:14;11.10;;;4.53;;
18812;SDS011;9534;51.140;6.296;2022-09-04T02:27:27;7.95;;;4.18;;
18812;SDS011;9534;51.140;6.296;2022-09-04T02:31:39;11.23;;;4.45;;
18812;SDS011;9534;51.140;6.296;2022-09-04T02:35:51;8.80;;;4.00;;
18812;SDS011;9534;51.140;6.296;2022-09-04T02:40:05;9.05;;;4.38;;
18812;SDS011;9534;51.140;6.296;2022-09-04T02:44:22;9.00;;;4.30;;
18812;SDS011;9534;51.140;6.296;2022-09-04T02:48:40;11.60;;;4.28;;
18812;SDS011;9534;51.140;6.296;2022-09-04T02:52:58;7.65;;;4.10;;
18812;SDS011;9534;51.140;6.296;2022-09-04T02:57:13;11.88;;;4.95;;
18812;SDS011;9534;51.140;6.296;2022-09-04T03:01:30;7.40;;;3.90;;
18812;SDS011;9534;51.140;6.296;2022-09-04T03:05:40;11.18;;;4.32;;
18812;SDS011;9534;51.140;6.296;2022-09-04T03:09:50;7.03;;;3.88;;
18812;SDS011;9534;51.140;6.296;2022-09-04T03:14:00;7.82;;;3.83;;
18812;SDS011;9534;51.140;6.296;2022-09-04T03:18:14;10.63;;;4.63;;
18812;SDS011;9534;51.140;6.296;2022-09-04T03:22:23;7.43;;;3.60;;
18812;SDS011;9534;51.140;6.296;2022-09-04T03:26:33;8.93;;;4.53;;
18812;SDS011;9534;51.140;6.296;2022-09-04T03:30:40;7.63;;;4.35;;
18812;SDS011;9534;51.140;6.296;2022-09-04T03:34:46;9.65;;;4.50;;
18812;SDS011;9534;51.140;6.296;2022-09-04T03:38:56;12.63;;;4.22;;
18812;SDS011;9534;51.140;6.296;2022-09-04T03:47:41;9.10;;;3.83;;
18812;SDS011;9534;51.140;6.296;2022-09-04T03:51:58;8.48;;;3.67;;
18812;SDS011;9534;51.140;6.296;2022-09-04T03:56:22;10.23;;;4.28;;
18812;SDS011;9534;51.140;6.296;2022-09-04T04:00:43;9.75;;;4.80;;
18812;SDS011;9534;51.140;6.296;2022-09-04T04:09:36;8.63;;;4.57;;
18812;SDS011;9534;51.140;6.296;2022-09-04T04:14:03;10.05;;;4.03;;
18812;SDS011;9534;51.140;6.296;2022-09-04T04:18:23;9.40;;;4.53;;
18812;SDS011;9534;51.140;6.296;2022-09-04T04:22:47;8.85;;;4.20;;
18812;SDS011;9534;51.140;6.296;2022-09-04T04:27:04;11.95;;;4.88;;
18812;SDS011;9534;51.140;6.296;2022-09-04T04:31:18;10.38;;;4.60;;
18812;SDS011;9534;51.140;6.296;2022-09-04T04:35:39;7.22;;;3.95;;
18812;SDS011;9534;51.140;6.296;2022-09-04T04:39:47;10.52;;;4.38;;
18812;SDS011;9534;51.140;6.296;2022-09-04T04:44:02;9.30;;;3.72;;
18812;SDS011;9534;51.140;6.296;2022-09-04T04:52:54;9.10;;;4.50;;
18812;SDS011;9534;51.140;6.296;2022-09-04T04:57:06;10.82;;;5.15;;
18812;SDS011;9534;51.140;6.296;2022-09-04T05:01:26;8.82;;;4.18;;
18812;SDS011;9534;51.140;6.296;2022-09-04T05:05:51;11.77;;;4.80;;
18812;SDS011;9534;51.140;6.296;2022-09-04T05:10:02;10.18;;;4.38;;
18812;SDS011;9534;51.140;6.296;2022-09-04T05:14:16;9.38;;;4.57;;
18812;SDS011;9534;51.140;6.296;2022-09-04T05:18:30;10.52;;;4.80;;
18812;SDS011;9534;51.140;6.296;2022-09-04T05:22:39;9.55;;;4.68;;
18812;SDS011;9534;51.140;6.296;2022-09-04T05:26:47;9.98;;;4.47;;
18812;SDS011;9534;51.140;6.296;2022-09-04T05:31:03;10.88;;;4.80;;
18812;SDS011;9534;51.140;6.296;2022-09-04T05:35:19;11.50;;;4.97;;
18812;SDS011;9534;51.140;6.296;2022-09-04T05:39:40;12.98;;;4.93;;
18812;SDS011;9534;51.140;6.296;2022-09-04T05:44:05;15.85;;;5.30;;
18812;SDS011;9534;51.140;6.296;2022-09-04T05:48:20;19.88;;;6.00;;
18812;SDS011;9534;51.140;6.296;2022-09-04T05:57:06;10.73;;;4.78;;
18812;SDS011;9534;51.140;6.296;2022-09-04T06:01:22;14.50;;;5.47;;
18812;SDS011;9534;51.140;6.296;2022-09-04T06:05:42;14.27;;;5.25;;
18812;SDS011;9534;51.140;6.296;2022-09-04T06:09:59;16.73;;;6.60;;
18812;SDS011;9534;51.140;6.296;2022-09-04T06:18:55;12.63;;;5.57;;
18812;SDS011;9534;51.140;6.296;2022-09-04T06:23:18;11.25;;;4.68;;
18812;SDS011;9534;51.140;6.296;2022-09-04T06:27:33;12.55;;;4.93;;
18812;SDS011;9534;51.140;6.296;2022-09-04T06:31:55;12.15;;;5.18;;
18812;SDS011;9534;51.140;6.296;2022-09-04T06:36:23;9.95;;;4.45;;
18812;SDS011;9534;51.140;6.296;2022-09-04T06:40:41;9.55;;;4.30;;
18812;SDS011;9534;51.140;6.296;2022-09-04T06:44:59;7.80;;;3.70;;
18812;SDS011;9534;51.140;6.296;2022-09-04T06:49:16;7.63;;;3.83;;
18812;SDS011;9534;51.140;6.296;2022-09-04T06:53:29;9.05;;;3.85;;
18812;SDS011;9534;51.140;6.296;2022-09-04T06:57:51;7.22;;;3.15;;
18812;SDS011;9534;51.140;6.296;2022-09-04T07:02:13;6.97;;;3.58;;
18812;SDS011;9534;51.140;6.296;2022-09-04T07:06:28;6.45;;;3.50;;
18812;SDS011;9534;51.140;6.296;2022-09-04T07:10:41;5.85;;;2.67;;
18812;SDS011;9534;51.140;6.296;2022-09-04T07:14:58;5.55;;;2.55;;
18812;SDS011;9534;51.140;6.296;2022-09-04T07:19:31;4.88;;;2.55;;
18812;SDS011;9534;51.140;6.296;2022-09-04T07:23:47;12.18;;;3.20;;
18812;SDS011;9534;51.140;6.296;2022-09-04T07:32:33;2.65;;;1.60;;
18812;SDS011;9534;51.140;6.296;2022-09-04T07:36:41;3.97;;;1.73;;
18812;SDS011;9534;51.140;6.296;2022-09-04T07:40:51;3.80;;;2.00;;
18812;SDS011;9534;51.140;6.296;2022-09-04T07:49:54;4.55;;;2.08;;
18812;SDS011;9534;51.140;6.296;2022-09-04T07:54:17;4.28;;;1.83;;
18812;SDS011;9534;51.140;6.296;2022-09-04T08:03:29;4.03;;;1.63;;
18812;SDS011;9534;51.140;6.296;2022-09-04T08:12:49;4.93;;;1.52;;
18812;SDS011;9534;51.140;6.296;2022-09-04T08:17:20;2.72;;;1.52;;
18812;SDS011;9534;51.140;6.296;2022-09-04T08:21:42;4.32;;;1.40;;
18812;SDS011;9534;51.140;6.296;2022-09-04T08:25:51;2.67;;;1.33;;
18812;SDS011;9534;51.140;6.296;2022-09-04T08:30:04;1.75;;;1.17;;
18812;SDS011;9534;51.140;6.296;2022-09-04T08:34:15;1.58;;;1.23;;
18812;SDS011;9534;51.140;6.296;2022-09-04T08:38:42;3.03;;;1.27;;
18812;SDS011;9534;51.140;6.296;2022-09-04T08:43:04;2.88;;;1.10;;
18812;SDS011;9534;51.140;6.296;2022-09-04T08:47:41;2.22;;;1.10;;
18812;SDS011;9534;51.140;6.296;2022-09-04T08:52:23;3.17;;;1.30;;
18812;SDS011;9534;51.140;6.296;2022-09-04T08:56:43;1.15;;;1.00;;
18812;SDS011;9534;51.140;6.296;2022-09-04T09:05:39;1.65;;;1.00;;
18812;SDS011;9534;51.140;6.296;2022-09-04T09:19:18;1.58;;;1.10;;
18812;SDS011;9534;51.140;6.296;2022-09-04T09:23:34;3.67;;;1.10;;
18812;SDS011;9534;51.140;6.296;2022-09-04T09:27:49;2.50;;;1.20;;
18812;SDS011;9534;51.140;6.296;2022-09-04T09:32:34;1.20;;;0.88;;
18812;SDS011;9534;51.140;6.296;2022-09-04T09:41:57;2.42;;;1.05;;
18812;SDS011;9534;51.140;6.296;2022-09-04T09:46:28;3.35;;;1.08;;
18812;SDS011;9534;51.140;6.296;2022-09-04T09:55:50;1.85;;;0.80;;
18812;SDS011;9534;51.140;6.296;2022-09-04T10:00:19;1.38;;;0.80;;
18812;SDS011;9534;51.140;6.296;2022-09-04T10:09:26;3.10;;;1.30;;
18812;SDS011;9534;51.140;6.296;2022-09-04T10:14:03;1.27;;;0.90;;
18812;SDS011;9534;51.140;6.296;2022-09-04T10:23:25;2.30;;;0.98;;
18812;SDS011;9534;51.140;6.296;2022-09-04T10:27:46;2.05;;;1.10;;
18812;SDS011;9534;51.140;6.296;2022-09-04T10:32:13;3.38;;;0.98;;
18812;SDS011;9534;51.140;6.296;2022-09-04T10:36:30;1.17;;;0.73;;
18812;SDS011;9534;51.140;6.296;2022-09-04T10:40:46;1.40;;;0.95;;
18812;SDS011;9534;51.140;6.296;2022-09-04T10:45:06;1.33;;;0.90;;
18812;SDS011;9534;51.140;6.296;2022-09-04T10:54:04;0.88;;;0.80;;
18812;SDS011;9534;51.140;6.296;2022-09-04T10:58:27;1.08;;;0.57;;
18812;SDS011;9534;51.140;6.296;2022-09-04T11:07:52;0.85;;;0.80;;
18812;SDS011;9534;51.140;6.296;2022-09-04T11:12:16;1.00;;;0.80;;
18812;SDS011;9534;51.140;6.296;2022-09-04T11:16:37;1.48;;;0.95;;
18812;SDS011;9534;51.140;6.296;2022-09-04T11:25:41;3.67;;;1.00;;
18812;SDS011;9534;51.140;6.296;2022-09-04T11:30:09;2.70;;;1.05;;
18812;SDS011;9534;51.140;6.296;2022-09-04T11:34:43;1.63;;;0.93;;
18812;SDS011;9534;51.140;6.296;2022-09-04T11:39:06;2.67;;;1.00;;
18812;SDS011;9534;51.140;6.296;2022-09-04T11:43:40;3.60;;;1.10;;
18812;SDS011;9534;51.140;6.296;2022-09-04T11:48:10;1.70;;;1.08;;
18812;SDS011;9534;51.140;6.296;2022-09-04T11:52:49;1.42;;;1.00;;
18812;SDS011;9534;51.140;6.296;2022-09-04T11:57:27;2.78;;;1.33;;
18812;SDS011;9534;51.140;6.296;2022-09-04T12:01:46;1.65;;;1.13;;
18812;SDS011;9534;51.140;6.296;2022-09-04T12:06:18;3.03;;;1.10;;
18812;SDS011;9534;51.140;6.296;2022-09-04T12:10:39;2.22;;;1.20;;
18812;SDS011;9534;51.140;6.296;2022-09-04T12:15:00;1.77;;;1.13;;
18812;SDS011;9534;51.140;6.296;2022-09-04T12:24:12;1.67;;;1.20;;
18812;SDS011;9534;51.140;6.296;2022-09-04T12:28:47;1.70;;;1.17;;
18812;SDS011;9534;51.140;6.296;2022-09-04T12:33:21;1.70;;;1.08;;
18812;SDS011;9534;51.140;6.296;2022-09-04T12:42:22;3.47;;;1.20;;
18812;SDS011;9534;51.140;6.296;2022-09-04T12:46:34;1.65;;;1.10;;
18812;SDS011;9534;51.140;6.296;2022-09-04T12:50:51;2.22;;;1.27;;
18812;SDS011;9534;51.140;6.296;2022-09-04T12:55:03;1.80;;;0.95;;
18812;SDS011;9534;51.140;6.296;2022-09-04T12:59:21;1.98;;;1.13;;
18812;SDS011;9534;51.140;6.296;2022-09-04T13:03:42;1.73;;;1.30;;
18812;SDS011;9534;51.140;6.296;2022-09-04T13:07:58;3.33;;;1.40;;
18812;SDS011;9534;51.140;6.296;2022-09-04T13:12:15;5.15;;;1.48;;
18812;SDS011;9534;51.140;6.296;2022-09-04T13:16:27;2.35;;;1.40;;
18812;SDS011;9534;51.140;6.296;2022-09-04T13:20:42;5.13;;;1.65;;
18812;SDS011;9534;51.140;6.296;2022-09-04T13:24:55;2.58;;;1.45;;
18812;SDS011;9534;51.140;6.296;2022-09-04T13:29:14;1.88;;;1.40;;
18812;SDS011;9534;51.140;6.296;2022-09-04T13:33:30;2.92;;;1.33;;
18812;SDS011;9534;51.140;6.296;2022-09-04T13:37:54;1.83;;;1.20;;
18812;SDS011;9534;51.140;6.296;2022-09-04T13:42:18;2.13;;;1.50;;
18812;SDS011;9534;51.140;6.296;2022-09-04T13:46:38;2.28;;;1.38;;
18812;SDS011;9534;51.140;6.296;2022-09-04T13:50:47;2.03;;;1.13;;
18812;SDS011;9534;51.140;6.296;2022-09-04T13:54:58;2.35;;;1.30;;
18812;SDS011;9534;51.140;6.296;2022-09-04T13:59:05;3.03;;;1.30;;
18812;SDS011;9534;51.140;6.296;2022-09-04T14:03:11;4.03;;;1.50;;
18812;SDS011;9534;51.140;6.296;2022-09-04T14:07:29;3.80;;;1.30;;
18812;SDS011;9534;51.140;6.296;2022-09-04T14:16:11;2.83;;;1.10;;
18812;SDS011;9534;51.140;6.296;2022-09-04T14:20:17;4.55;;;1.10;;
18812;SDS011;9534;51.140;6.296;2022-09-04T14:24:27;2.13;;;1.20;;
18812;SDS011;9534;51.140;6.296;2022-09-04T14:28:42;1.98;;;1.10;;
18812;SDS011;9534;51.140;6.296;2022-09-04T14:32:54;1.50;;;1.10;;
18812;SDS011;9534;51.140;6.296;2022-09-04T14:37:13;1.15;;;1.05;;
18812;SDS011;9534;51.140;6.296;2022-09-04T14:41:33;3.00;;;1.15;;
18812;SDS011;9534;51.140;6.296;2022-09-04T14:45:49;4.32;;;1.02;;
18812;SDS011;9534;51.140;6.296;2022-09-04T14:50:07;3.08;;;1.27;;
18812;SDS011;9534;51.140;6.296;2022-09-04T14:54:14;1.30;;;0.95;;
18812;SDS011;9534;51.140;6.296;2022-09-04T14:58:21;6.32;;;3.47;;
18812;SDS011;9534;51.140;6.296;2022-09-04T15:02:32;3.08;;;1.30;;
18812;SDS011;9534;51.140;6.296;2022-09-04T15:06:42;1.95;;;1.00;;
18812;SDS011;9534;51.140;6.296;2022-09-04T15:11:23;2.33;;;0.90;;
18812;SDS011;9534;51.140;6.296;2022-09-04T15:15:34;2.03;;;1.20;;
18812;SDS011;9534;51.140;6.296;2022-09-04T15:19:43;3.95;;;1.38;;
18812;SDS011;9534;51.140;6.296;2022-09-04T15:23:53;3.03;;;1.02;;
18812;SDS011;9534;51.140;6.296;2022-09-04T15:28:05;1.52;;;1.13;;
18812;SDS011;9534;51.140;6.296;2022-09-04T15:32:19;1.80;;;1.15;;
18812;SDS011;9534;51.140;6.296;2022-09-04T15:36:23;1.20;;;1.02;;
18812;SDS011;9534;51.140;6.296;2022-09-04T15:40:29;3.10;;;0.90;;
18812;SDS011;9534;51.140;6.296;2022-09-04T15:44:38;2.47;;;1.33;;
18812;SDS011;9534;51.140;6.296;2022-09-04T15:48:46;3.67;;;1.20;;
18812;SDS011;9534;51.140;6.296;2022-09-04T15:52:54;1.75;;;0.80;;
18812;SDS011;9534;51.140;6.296;2022-09-04T15:57:14;2.88;;;0.93;;
18812;SDS011;9534;51.140;6.296;2022-09-04T16:01:24;1.65;;;1.20;;
18812;SDS011;9534;51.140;6.296;2022-09-04T16:05:36;2.65;;;1.25;;
18812;SDS011;9534;51.140;6.296;2022-09-04T16:09:46;1.42;;;1.20;;
18812;SDS011;9534;51.140;6.296;2022-09-04T16:13:54;1.40;;;0.90;;
18812;SDS011;9534;51.140;6.296;2022-09-04T16:18:01;1.65;;;0.90;;
18812;SDS011;9534;51.140;6.296;2022-09-04T16:22:22;1.08;;;0.77;;
18812;SDS011;9534;51.140;6.296;2022-09-04T16:26:33;1.85;;;1.08;;
18812;SDS011;9534;51.140;6.296;2022-09-04T16:30:38;1.70;;;0.95;;
18812;SDS011;9534;51.140;6.296;2022-09-04T16:34:48;3.90;;;1.10;;
18812;SDS011;9534;51.140;6.296;2022-09-04T16:38:57;1.48;;;1.00;;
18812;SDS011;9534;51.140;6.296;2022-09-04T16:43:09;3.15;;;1.30;;
18812;SDS011;9534;51.140;6.296;2022-09-04T16:47:22;1.85;;;1.10;;
18812;SDS011;9534;51.140;6.296;2022-09-04T16:51:33;1.33;;;1.02;;
18812;SDS011;9534;51.140;6.296;2022-09-04T16:55:46;1.45;;;1.00;;
18812;SDS011;9534;51.140;6.296;2022-09-04T16:59:58;1.25;;;1.00;;
18812;SDS011;9534;51.140;6.296;2022-09-04T17:04:20;2.10;;;0.98;;
18812;SDS011;9534;51.140;6.296;2022-09-04T17:08:31;1.73;;;1.10;;
18812;SDS011;9534;51.140;6.296;2022-09-04T17:12:47;1.98;;;1.20;;
18812;SDS011;9534;51.140;6.296;2022-09-04T17:17:01;1.63;;;1.00;;
18812;SDS011;9534;51.140;6.296;2022-09-04T17:21:29;5.25;;;1.20;;
18812;SDS011;9534;51.140;6.296;2022-09-04T17:26:18;1.90;;;1.00;;
18812;SDS011;9534;51.140;6.296;2022-09-04T17:30:51;2.17;;;1.38;;
18812;SDS011;9534;51.140;6.296;2022-09-04T17:34:58;2.55;;;1.27;;
18812;SDS011;9534;51.140;6.296;2022-09-04T17:39:30;1.40;;;0.90;;
18812;SDS011;9534;51.140;6.296;2022-09-04T17:44:04;2.10;;;1.27;;
18812;SDS011;9534;51.140;6.296;2022-09-04T17:48:20;2.25;;;1.23;;
18812;SDS011;9534;51.140;6.296;2022-09-04T17:52:26;2.40;;;1.30;;
18812;SDS011;9534;51.140;6.296;2022-09-04T17:56:34;3.05;;;1.80;;
18812;SDS011;9534;51.140;6.296;2022-09-04T18:00:48;2.85;;;1.27;;
18812;SDS011;9534;51.140;6.296;2022-09-04T18:05:18;2.40;;;1.35;;
18812;SDS011;9534;51.140;6.296;2022-09-04T18:09:29;4.13;;;1.50;;
18812;SDS011;9534;51.140;6.296;2022-09-04T18:13:41;3.83;;;1.90;;
18812;SDS011;9534;51.140;6.296;2022-09-04T18:17:53;5.53;;;1.58;;
18812;SDS011;9534;51.140;6.296;2022-09-04T18:22:01;2.85;;;1.33;;
18812;SDS011;9534;51.140;6.296;2022-09-04T18:26:31;7.68;;;3.22;;
18812;SDS011;9534;51.140;6.296;2022-09-04T18:30:48;5.07;;;2.35;;
18812;SDS011;9534;51.140;6.296;2022-09-04T18:35:22;5.90;;;1.92;;
18812;SDS011;9534;51.140;6.296;2022-09-04T18:44:42;7.10;;;1.77;;
18812;SDS011;9534;51.140;6.296;2022-09-04T18:49:09;2.60;;;1.52;;
18812;SDS011;9534;51.140;6.296;2022-09-04T18:53:38;5.25;;;1.83;;
18812;SDS011;9534;51.140;6.296;2022-09-04T18:57:47;3.10;;;1.80;;
18812;SDS011;9534;51.140;6.296;2022-09-04T19:01:56;3.72;;;1.83;;
18812;SDS011;9534;51.140;6.296;2022-09-04T19:06:09;5.43;;;1.83;;
18812;SDS011;9534;51.140;6.296;2022-09-04T19:10:17;2.90;;;1.55;;
18812;SDS011;9534;51.140;6.296;2022-09-04T19:14:27;5.40;;;3.00;;
18812;SDS011;9534;51.140;6.296;2022-09-04T19:18:41;4.45;;;1.92;;
18812;SDS011;9534;51.140;6.296;2022-09-04T19:22:50;3.50;;;1.58;;
18812;SDS011;9534;51.140;6.296;2022-09-04T19:27:08;3.28;;;1.80;;
18812;SDS011;9534;51.140;6.296;2022-09-04T19:31:32;4.72;;;1.50;;
18812;SDS011;9534;51.140;6.296;2022-09-04T19:35:42;3.08;;;1.30;;
18812;SDS011;9534;51.140;6.296;2022-09-04T19:39:49;2.72;;;1.33;;
18812;SDS011;9534;51.140;6.296;2022-09-04T19:44:17;2.65;;;1.65;;
18812;SDS011;9534;51.140;6.296;2022-09-04T19:48:45;2.90;;;1.70;;
18812;SDS011;9534;51.140;6.296;2022-09-04T19:53:27;2.90;;;1.40;;
18812;SDS011;9534;51.140;6.296;2022-09-04T19:57:49;3.75;;;1.85;;
18812;SDS011;9534;51.140;6.296;2022-09-04T20:02:10;1.63;;;1.15;;
18812;SDS011;9534;51.140;6.296;2022-09-04T20:06:23;3.72;;;1.83;;
18812;SDS011;9534;51.140;6.296;2022-09-04T20:10:31;2.72;;;1.42;;
18812;SDS011;9534;51.140;6.296;2022-09-04T20:14:40;4.28;;;1.90;;
18812;SDS011;9534;51.140;6.296;2022-09-04T20:18:50;3.17;;;1.85;;
18812;SDS011;9534;51.140;6.296;2022-09-04T20:22:58;4.25;;;1.50;;
18812;SDS011;9534;51.140;6.296;2022-09-04T20:27:27;2.75;;;1.55;;
18812;SDS011;9534;51.140;6.296;2022-09-04T20:31:38;3.13;;;1.70;;
18812;SDS011;9534;51.140;6.296;2022-09-04T20:35:51;2.45;;;1.45;;
18812;SDS011;9534;51.140;6.296;2022-09-04T20:40:13;2.67;;;1.70;;
18812;SDS011;9534;51.140;6.296;2022-09-04T20:44:29;4.10;;;1.45;;
18812;SDS011;9534;51.140;6.296;2022-09-04T20:48:59;2.45;;;1.65;;
18812;SDS011;9534;51.140;6.296;2022-09-04T20:53:28;4.45;;;1.92;;
18812;SDS011;9534;51.140;6.296;2022-09-04T20:57:51;12.30;;;5.07;;
18812;SDS011;9534;51.140;6.296;2022-09-04T21:02:42;2.60;;;1.52;;
18812;SDS011;9534;51.140;6.296;2022-09-04T21:07:18;4.03;;;1.88;;
18812;SDS011;9534;51.140;6.296;2022-09-04T21:11:29;2.30;;;1.33;;
18812;SDS011;9534;51.140;6.296;2022-09-04T21:15:46;8.68;;;1.80;;
18812;SDS011;9534;51.140;6.296;2022-09-04T21:24:31;4.55;;;2.22;;
18812;SDS011;9534;51.140;6.296;2022-09-04T21:29:06;3.15;;;1.70;;
18812;SDS011;9534;51.140;6.296;2022-09-04T21:33:30;3.08;;;1.50;;
18812;SDS011;9534;51.140;6.296;2022-09-04T21:37:44;4.75;;;2.22;;
18812;SDS011;9534;51.140;6.296;2022-09-04T21:41:55;6.18;;;2.10;;
18812;SDS011;9534;51.140;6.296;2022-09-04T21:46:34;4.53;;;1.77;;
18812;SDS011;9534;51.140;6.296;2022-09-04T21:55:42;4.47;;;1.92;;
18812;SDS011;9534;51.140;6.296;2022-09-04T22:00:22;2.45;;;1.23;;
18812;SDS011;9534;51.140;6.296;2022-09-04T22:04:48;3.35;;;1.70;;
18812;SDS011;9534;51.140;6.296;2022-09-04T22:09:06;4.13;;;1.70;;
18812;SDS011;9534;51.140;6.296;2022-09-04T22:13:40;4.30;;;1.88;;
18812;SDS011;9534;51.140;6.296;2022-09-04T22:22:45;7.00;;;1.85;;
18812;SDS011;9534;51.140;6.296;2022-09-04T22:27:20;2.58;;;1.40;;
18812;SDS011;9534;51.140;6.296;2022-09-04T22:37:09;3.70;;;1.45;;
18812;SDS011;9534;51.140;6.296;2022-09-04T22:41:40;2.95;;;1.75;;
18812;SDS011;9534;51.140;6.296;2022-09-04T22:46:10;5.93;;;2.08;;
18812;SDS011;9534;51.140;6.296;2022-09-04T22:55:25;5.60;;;1.88;;
18812;SDS011;9534;51.140;6.296;2022-09-04T23:00:03;3.17;;;1.98;;
18812;SDS011;9534;51.140;6.296;2022-09-04T23:04:17;4.65;;;1.50;;
18812;SDS011;9534;51.140;6.296;2022-09-04T23:08:41;4.18;;;1.92;;
18812;SDS011;9534;51.140;6.296;2022-09-04T23:13:25;4.20;;;1.85;;
18812;SDS011;9534;51.140;6.296;2022-09-04T23:18:09;4.93;;;1.70;;
18812;SDS011;9534;51.140;6.296;2022-09-04T23:22:55;4.20;;;1.90;;
18812;SDS011;9534;51.140;6.296;2022-09-04T23:27:34;3.75;;;2.10;;
18812;SDS011;9534;51.140;6.296;2022-09-04T23:31:51;5.00;;;2.10;;
18812;SDS011;9534;51.140;6.296;2022-09-04T23:36:18;9.02;;;2.42;;
18812;SDS011;9534;51.140;6.296;2022-09-04T23:40:44;3.05;;;1.63;;
18812;SDS011;9534;51.140;6.296;2022-09-04T23:44:59;4.70;;;1.67;;
18812;SDS011;9534;51.140;6.296;2022-09-04T23:49:30;5.70;;;1.88;;
18812;SDS011;9534;51.140;6.296;2022-09-04T23:53:50;3.83;;;1.80;;
18812;SDS011;9534;51.140;6.296;2022-09-04T23:58:30;6.50;;;2.00;;
